Time;durP1;ratioP1;P1;durP2;ratioP2;P2;SDS_P1;SDS_P2;PMS_P1;PMS_P2;Temp;Humidity;BMP_temperature;BMP_pressure;BME280_temperature;BME280_humidity;BME280_pressure;Samples;Min_cycle;Max_cycle;Signal;HPM_P1;HPM_P2
2022/08/06 00:02:09;;;;;;;6.30;3.92;;;;;;;17.40;62.58;93381.53;5107302;28;20450;-50
2022/08/06 00:04:35;;;;;;;4.53;3.67;;;;;;;17.36;62.88;93394.47;5107783;28;20030;-54
2022/08/06 00:07:00;;;;;;;3.40;3.10;;;;;;;17.16;63.64;93390.31;5102488;28;20032;-54
2022/08/06 00:09:32;;;;;;;4.80;3.83;;;;;;;17.20;63.96;93388.53;5106534;28;20019;-56
2022/08/06 00:11:59;;;;;;;5.13;3.83;;;;;;;17.09;63.77;93383.56;5107341;28;20098;-56
2022/08/06 00:14:28;;;;;;;4.30;3.45;;;;;;;17.13;64.01;93378.28;5107553;28;20035;-51
2022/08/06 00:16:54;;;;;;;4.38;3.97;;;;;;;17.20;63.61;93390.59;5107094;28;20038;-52
2022/08/06 00:19:19;;;;;;;4.93;3.35;;;;;;;17.02;64.30;93392.84;5106603;28;20028;-51
2022/08/06 00:21:45;;;;;;;4.40;4.00;;;;;;;17.13;63.84;93386.66;5086730;28;20024;-54
2022/08/06 00:24:10;;;;;;;3.80;3.35;;;;;;;17.16;63.49;93388.25;5086803;28;20024;-52
2022/08/06 00:26:37;;;;;;;4.80;3.42;;;;;;;17.15;63.66;93388.84;5087009;28;20043;-53
2022/08/06 00:29:03;;;;;;;4.45;4.00;;;;;;;17.06;64.09;93384.78;5086628;28;20020;-55
2022/08/06 00:31:29;;;;;;;5.05;4.40;;;;;;;16.92;63.93;93363.53;5086960;28;20456;-54
2022/08/06 00:33:55;;;;;;;4.40;4.00;;;;;;;16.66;65.21;93371.53;5086483;28;20021;-53
2022/08/06 00:36:22;;;;;;;5.82;4.72;;;;;;;16.98;64.78;93387.00;5086564;28;20024;-60
2022/08/06 00:38:48;;;;;;;5.65;4.60;;;;;;;16.98;63.26;93386.28;5086687;28;20094;-60
2022/08/06 00:41:14;;;;;;;5.50;4.47;;;;;;;17.11;62.91;93388.56;5092136;28;20020;-59
2022/08/06 00:43:41;;;;;;;5.30;4.80;;;;;;;16.75;64.43;93384.00;5104318;28;20039;-59
2022/08/06 00:46:07;;;;;;;6.03;5.38;;;;;;;16.85;64.38;93378.41;5091596;28;20085;-59
2022/08/06 00:48:33;;;;;;;6.47;5.40;;;;;;;16.85;64.92;93378.41;5093380;28;20028;-59
2022/08/06 00:50:58;;;;;;;8.43;4.93;;;;;;;16.84;64.62;93380.44;5093236;28;20039;-60
2022/08/06 00:53:24;;;;;;;6.85;4.75;;;;;;;16.75;64.97;93380.47;5093121;28;20024;-54
2022/08/06 00:55:49;;;;;;;6.03;5.43;;;;;;;16.63;64.72;93375.50;5093003;28;20020;-54
2022/08/06 00:58:15;;;;;;;101.88;10.02;;;;;;;16.44;65.21;93369.19;5092777;28;20107;-55
2022/08/06 01:00:40;;;;;;;42.25;5.47;;;;;;;16.62;64.83;93374.03;5093150;28;20031;-51
2022/08/06 01:03:06;;;;;;;27.95;5.72;;;;;;;16.79;64.54;93383.53;5092784;28;20110;-53
2022/08/06 01:05:32;;;;;;;7.50;3.53;;;;;;;16.60;65.08;93390.63;5091983;28;20031;-53
2022/08/06 01:07:57;;;;;;;36.95;5.05;;;;;;;16.66;64.98;93384.75;5092389;28;20512;-52
2022/08/06 01:10:22;;;;;;;18.67;4.97;;;;;;;16.53;65.36;93383.16;5092561;28;20035;-53
2022/08/06 01:12:48;;;;;;;18.20;4.53;;;;;;;16.62;65.19;93385.19;5091527;28;20021;-54
2022/08/06 01:15:13;;;;;;;31.98;4.85;;;;;;;16.58;65.33;93384.91;5082959;28;20055;-53
2022/08/06 01:17:46;;;;;;;13.43;5.30;;;;;;;16.72;65.09;93385.16;5081831;28;20028;-53
2022/08/06 01:21:00;;;;;;;8.40;5.07;;;;;;;16.81;64.47;93389.97;5084228;28;20084;-51
2022/08/06 01:23:49;;;;;;;44.80;4.90;;;;;;;16.65;64.86;93381.22;5068425;28;20043;-55
2022/08/06 01:26:32;;;;;;;10.93;4.20;;;;;;;16.61;64.98;93377.44;5072388;28;20035;-59
2022/08/06 01:29:29;;;;;;;6.38;3.85;;;;;;;16.65;65.22;93378.44;5085352;28;20062;-59
2022/08/06 01:32:30;;;;;;;13.07;10.57;;;;;;;16.44;66.08;93364.38;5082839;28;20058;-55
2022/08/06 01:35:02;;;;;;;4.60;4.15;;;;;;;16.57;65.75;93365.97;5051609;28;20406;-52
2022/08/06 01:37:31;;;;;;;4.18;3.85;;;;;;;16.65;65.84;93361.69;5081812;28;20416;-52
2022/08/06 01:40:00;;;;;;;13.40;12.20;;;;;;;16.53;65.22;93354.53;5081428;28;20415;-51
2022/08/06 01:42:29;;;;;;;5.90;5.00;;;;;;;16.78;64.59;93359.78;5082255;28;20027;-57
2022/08/06 01:44:54;;;;;;;;;;;;;;;16.82;64.14;93360.78;5076943;28;20601;-58
2022/08/06 01:47:21;;;;;;;10.50;4.75;;;;;;;16.76;64.19;93362.41;5088263;28;20002;-58
2022/08/06 01:49:49;;;;;;;22.23;5.60;;;;;;;16.57;65.40;93354.81;5091031;28;20466;-58
2022/08/06 01:52:17;;;;;;;34.10;6.23;;;;;;;16.52;65.66;93348.22;5092409;28;20117;-58
2022/08/06 01:54:46;;;;;;;5.25;4.75;;;;;;;16.52;65.56;93348.22;5103271;28;20015;-55
2022/08/06 01:57:13;;;;;;;12.63;5.18;;;;;;;16.46;65.58;93345.00;5091405;28;20031;-57
2022/08/06 01:59:43;;;;;;;11.05;4.50;;;;;;;16.46;65.86;93350.56;5107766;28;20032;-57
2022/08/06 02:02:11;;;;;;;59.22;6.45;;;;;;;16.29;66.26;93344.44;5097897;28;20085;-57
2022/08/06 02:04:38;;;;;;;20.25;5.68;;;;;;;16.24;66.50;93337.84;5099378;28;20062;-57
2022/08/06 02:07:07;;;;;;;5.35;4.30;;;;;;;16.00;66.72;93321.47;5091552;28;20036;-57
2022/08/06 02:09:33;;;;;;;7.70;4.15;;;;;;;16.13;67.01;93343.31;5091521;28;20066;-56
2022/08/06 02:12:04;;;;;;;7.70;4.47;;;;;;;16.17;66.81;93340.81;5090584;28;20081;-56
2022/08/06 02:14:32;;;;;;;5.47;4.97;;;;;;;16.25;66.42;93338.59;5091772;28;20602;-58
2022/08/06 02:16:59;;;;;;;5.35;4.85;;;;;;;16.15;66.57;93333.03;5088955;28;20519;-55
2022/08/06 02:19:26;;;;;;;6.40;4.65;;;;;;;16.09;66.85;93335.38;5088741;28;20086;-56
2022/08/06 02:21:52;;;;;;;8.25;4.75;;;;;;;16.06;67.02;93339.34;5071059;28;20039;-54
2022/08/06 02:24:18;;;;;;;8.43;4.15;;;;;;;15.99;67.29;93345.78;5071315;28;20020;-55
2022/08/06 02:26:44;;;;;;;4.30;3.90;;;;;;;15.92;67.86;93338.31;5069726;28;20413;-55
2022/08/06 02:29:14;;;;;;;5.22;4.35;;;;;;;16.02;67.49;93333.50;5070915;28;20016;-52
2022/08/06 02:31:41;;;;;;;4.95;4.22;;;;;;;16.08;67.11;93333.91;5069689;28;20568;-54
2022/08/06 02:34:06;;;;;;;4.90;4.50;;;;;;;16.03;66.98;93332.16;5070651;28;20477;-57
2022/08/06 02:36:46;;;;;;;6.97;5.53;;;;;;;15.79;67.69;93330.41;5070796;28;20035;-56
2022/08/06 02:39:41;;;;;;;5.75;5.18;;;;;;;15.83;67.73;93327.94;5069920;28;20408;-57
2022/08/06 02:42:19;;;;;;;9.95;5.60;;;;;;;15.94;67.17;93335.66;5082736;28;20020;-53
2022/08/06 02:44:56;;;;;;;6.70;5.68;;;;;;;15.77;67.99;93341.38;5090681;28;20043;-53
2022/08/06 02:47:41;;;;;;;7.03;5.80;;;;;;;15.86;67.79;93337.88;5091064;28;20105;-49
2022/08/06 02:50:08;;;;;;;10.18;6.03;;;;;;;15.90;67.82;93340.94;5091050;28;20386;-49
2022/08/06 02:53:10;;;;;;;8.70;6.13;;;;;;;15.59;67.51;93287.19;5089789;28;20568;-49
2022/08/06 02:55:38;;;;;;;7.00;5.75;;;;;;;16.03;67.01;93337.72;5091068;28;20047;-49
2022/08/06 02:58:22;;;;;;;6.72;5.68;;;;;;;15.96;66.88;93335.81;5089456;28;20059;-50
2022/08/06 03:00:49;;;;;;;5.93;4.80;;;;;;;15.96;66.47;93335.81;5090822;28;20027;-49
2022/08/06 03:03:16;;;;;;;7.88;6.28;;;;;;;15.86;67.51;93340.66;5089644;28;20096;-50
2022/08/06 03:05:44;;;;;;;5.70;5.13;;;;;;;15.90;66.80;93338.16;5090895;28;20030;-52
2022/08/06 03:08:13;;;;;;;6.63;4.68;;;;;;;15.77;67.13;93339.34;5090340;28;20024;-51
2022/08/06 03:10:39;;;;;;;5.45;4.95;;;;;;;15.80;66.86;93343.00;5090448;28;20039;-51
2022/08/06 03:13:06;;;;;;;6.13;4.88;;;;;;;15.60;67.02;93322.03;5090570;28;20020;-55
2022/08/06 03:15:33;;;;;;;5.90;4.43;;;;;;;15.59;67.03;93334.50;5089547;28;20107;-52
2022/08/06 03:18:00;;;;;;;3.80;3.50;;;;;;;15.58;67.06;93339.34;5089275;28;20028;-58
2022/08/06 03:20:26;;;;;;;5.55;3.97;;;;;;;15.57;67.07;93331.56;5079284;28;20016;-60
2022/08/06 03:22:53;;;;;;;4.65;4.25;;;;;;;15.59;67.04;93331.72;5070052;28;20077;-60
2022/08/06 03:25:19;;;;;;;4.97;4.22;;;;;;;15.47;67.51;93339.16;5069227;28;20029;-60
2022/08/06 03:27:46;;;;;;;5.53;4.97;;;;;;;15.36;68.50;93339.69;5069105;28;20409;-60
2022/08/06 03:30:16;;;;;;;6.70;4.30;;;;;;;15.35;68.61;93335.47;5068928;28;20029;-60
2022/08/06 03:32:42;;;;;;;5.53;4.70;;;;;;;15.46;68.49;93341.22;5070216;28;20017;-60
2022/08/06 03:35:08;;;;;;;5.80;5.18;;;;;;;15.45;68.51;93344.59;5068956;28;20553;-60
2022/08/06 03:37:34;;;;;;;5.25;4.75;;;;;;;15.40;69.02;93342.81;5069970;28;20413;-55
2022/08/06 03:40:00;;;;;;;9.20;4.90;;;;;;;15.42;69.25;93349.22;5070292;28;20032;-49
2022/08/06 03:42:26;;;;;;;5.53;5.00;;;;;;;15.56;69.32;93350.31;5085236;28;20020;-56
2022/08/06 03:44:51;;;;;;;6.07;5.18;;;;;;;15.54;69.54;93343.88;5090127;28;20077;-51
2022/08/06 03:47:32;;;;;;;5.90;5.32;;;;;;;15.47;69.02;93337.13;5089106;28;20023;-55
2022/08/06 03:50:23;;;;;;;5.63;4.63;;;;;;;15.63;68.92;93349.44;5088912;28;20031;-57
2022/08/06 03:52:54;;;;;;;13.80;5.55;;;;;;;15.77;68.39;93352.53;5088690;28;20024;-51
2022/08/06 03:55:23;;;;;;;24.25;5.85;;;;;;;15.73;67.81;93349.44;5089186;28;20058;-59
2022/08/06 03:57:49;;;;;;;;;;;;;;;15.73;67.75;93352.97;5089369;28;20031;-59
2022/08/06 04:00:17;;;;;;;10.20;4.60;;;;;;;15.67;67.68;93330.28;5089071;28;20418;-58
2022/08/06 04:02:46;;;;;;;6.90;4.53;;;;;;;15.86;67.62;93335.09;5090113;28;20091;-59
2022/08/06 04:05:13;;;;;;;;;;;;;;;15.80;67.86;93343.00;5089298;28;20024;-52
2022/08/06 04:07:39;;;;;;;8.95;5.28;;;;;;;15.86;67.57;93343.44;5088997;28;19910;-53
2022/08/06 04:10:06;;;;;;;6.05;5.13;;;;;;;15.73;68.27;93335.53;5089797;28;20082;-61
2022/08/06 04:12:32;;;;;;;10.20;5.30;;;;;;;15.71;68.40;93352.09;5090071;28;20024;-60
2022/08/06 04:14:58;;;;;;;28.02;6.40;;;;;;;15.67;68.57;93346.22;5089716;28;20024;-61
2022/08/06 04:17:24;;;;;;;19.83;5.30;;;;;;;15.63;69.00;93349.44;5088543;28;20111;-61
2022/08/06 04:19:51;;;;;;;17.00;5.40;;;;;;;15.69;69.60;93351.94;5084969;28;20048;-60
2022/08/06 04:22:16;;;;;;;5.35;4.80;;;;;;;15.84;68.64;93355.19;5073292;28;20112;-60
2022/08/06 04:24:42;;;;;;;6.97;5.72;;;;;;;15.91;68.21;93351.53;5072339;28;20048;-60
2022/08/06 04:27:08;;;;;;;10.63;6.53;;;;;;;15.81;68.15;93350.78;5072337;28;20025;-60
2022/08/06 04:29:36;;;;;;;12.02;7.55;;;;;;;15.85;68.14;93350.34;5071997;28;20486;-60
2022/08/06 04:32:02;;;;;;;12.13;7.28;;;;;;;15.92;67.63;93355.03;5082839;28;20528;-51
2022/08/06 04:34:28;;;;;;;9.55;8.55;;;;;;;15.93;67.59;93362.81;5093426;28;20024;-49
2022/08/06 04:36:55;;;;;;;7.07;6.38;;;;;;;15.92;67.61;93347.41;5091584;28;20028;-49
2022/08/06 04:39:21;;;;;;;15.60;7.00;;;;;;;15.94;68.61;93363.53;5091330;28;20485;-49
2022/08/06 04:41:48;;;;;;;10.68;7.10;;;;;;;16.13;68.85;93369.09;5093424;28;20066;-50
2022/08/06 04:44:13;;;;;;;12.15;7.57;;;;;;;16.15;68.10;93371.28;5093053;28;20071;-50
2022/08/06 04:46:39;;;;;;;8.65;6.90;;;;;;;16.17;68.87;93363.81;5092075;28;20477;-57
2022/08/06 04:49:04;;;;;;;8.88;6.88;;;;;;;16.13;69.10;93369.09;5093156;28;20047;-50
2022/08/06 04:51:30;;;;;;;14.70;7.75;;;;;;;16.27;68.25;93372.16;5082740;28;20020;-52
2022/08/06 04:53:56;;;;;;;11.77;8.02;;;;;;;16.30;68.44;93379.34;5081190;28;20107;-56
2022/08/06 04:56:21;;;;;;;8.02;6.40;;;;;;;16.29;69.01;93381.41;5083328;28;20032;-52
2022/08/06 04:58:47;;;;;;;9.00;7.03;;;;;;;16.39;69.52;93382.13;5081522;28;20074;-55
2022/08/06 05:01:13;;;;;;;8.40;6.90;;;;;;;16.44;70.45;93375.50;5082656;28;20523;-52
2022/08/06 05:03:38;;;;;;;10.68;7.35;;;;;;;16.65;68.63;93384.00;5083234;28;20015;-51
2022/08/06 05:06:18;;;;;;;14.38;7.13;;;;;;;16.77;68.53;93384.13;5090163;28;20097;-46
2022/08/06 05:08:46;;;;;;;14.05;7.47;;;;;;;16.94;68.76;93377.63;5093048;28;20417;-50
2022/08/06 05:11:16;;;;;;;25.20;8.30;;;;;;;17.01;68.89;93357.19;5092637;28;20024;-49
2022/08/06 05:13:44;;;;;;;15.80;9.63;;;;;;;17.20;69.15;93380.16;5092683;28;20052;-59
2022/08/06 05:16:12;;;;;;;20.05;14.50;;;;;;;17.29;68.82;93373.81;5092847;28;20097;-47
2022/08/06 05:18:54;;;;;;;21.63;8.55;;;;;;;17.29;69.11;93373.06;5091760;28;20081;-49
2022/08/06 05:21:28;;;;;;;18.88;6.60;;;;;;;17.45;69.34;93369.31;5073590;28;20501;-47
2022/08/06 05:23:54;;;;;;;23.20;13.30;;;;;;;17.58;68.85;93370.16;5071092;28;20560;-47
2022/08/06 05:26:21;;;;;;;23.85;7.03;;;;;;;17.70;68.82;93371.69;5072171;28;20028;-51
2022/08/06 05:28:46;;;;;;;9.80;6.70;;;;;;;17.77;68.28;93367.25;5072269;28;20412;-58
2022/08/06 05:31:11;;;;;;;8.88;6.00;;;;;;;17.94;67.73;93370.50;5072291;28;20027;-57
2022/08/06 05:33:38;;;;;;;6.78;6.18;;;;;;;18.03;67.93;93368.97;5071951;28;20158;-57
2022/08/06 05:36:06;;;;;;;15.35;6.82;;;;;;;18.05;68.09;93367.03;5072066;28;20023;-58
2022/08/06 05:38:34;;;;;;;7.25;6.47;;;;;;;18.15;68.18;93376.06;5072229;28;20074;-58
2022/08/06 05:41:00;;;;;;;10.38;6.68;;;;;;;18.29;67.81;93375.53;5075322;28;20047;-58
2022/08/06 05:59:26;;;;;;;8.45;7.32;;;;;;;19.76;64.09;93356.66;5128259;27;20681;-59
2022/08/06 06:01:52;;;;;;;38.05;26.92;;;;;;;19.76;64.72;93360.19;5107057;28;20110;-55
2022/08/06 06:04:18;;;;;;;55.72;36.90;;;;;;;19.84;65.24;93360.66;5107737;28;20095;-58
2022/08/06 06:06:44;;;;;;;26.30;18.63;;;;;;;19.92;64.58;93358.34;5086132;28;20016;-55
2022/08/06 06:09:10;;;;;;;23.33;18.73;;;;;;;19.86;64.44;93360.78;5086530;28;20029;-56
2022/08/06 06:11:36;;;;;;;13.68;10.93;;;;;;;19.90;64.05;93358.22;5087175;28;20020;-56
2022/08/06 06:14:03;;;;;;;8.90;8.00;;;;;;;20.00;63.31;93360.88;5088816;28;20054;-57
2022/08/06 06:17:10;;;;;;;7.10;6.40;;;;;;;20.10;63.72;93358.63;5099085;28;20024;-54
2022/08/06 06:19:45;;;;;;;8.38;7.55;;;;;;;20.30;64.42;93351.41;5044499;28;20430;-60
2022/08/06 06:22:34;;;;;;;9.05;7.32;;;;;;;20.41;63.19;93350.63;5048936;28;20588;-59
2022/08/06 06:25:04;;;;;;;10.18;7.65;;;;;;;20.60;63.70;93346.75;5105376;28;20046;-58
2022/08/06 06:28:01;;;;;;;6.53;5.90;;;;;;;20.69;62.77;93343.06;5106448;28;20030;-55
2022/08/06 06:30:52;;;;;;;9.05;5.65;;;;;;;20.70;61.97;93347.34;5093346;28;20114;-49
2022/08/06 06:33:37;;;;;;;7.20;6.50;;;;;;;20.81;62.13;93333.22;5106122;28;20036;-61
2022/08/06 06:36:27;;;;;;;5.45;4.93;;;;;;;21.02;61.13;93344.22;5104518;28;20055;-59
2022/08/06 06:39:04;;;;;;;11.15;5.65;;;;;;;21.19;61.51;93342.28;5091010;28;20027;-60
2022/08/06 06:41:45;;;;;;;10.15;5.78;;;;;;;21.38;60.57;93333.47;5108124;27;20115;-57
2022/08/06 06:44:18;;;;;;;6.22;5.47;;;;;;;21.60;60.61;93343.03;5102902;28;20111;-58
2022/08/06 06:46:58;;;;;;;5.15;4.65;;;;;;;21.74;60.20;93338.16;5095294;28;20029;-50
2022/08/06 06:49:46;;;;;;;5.07;4.57;;;;;;;21.89;60.00;93334.75;5101913;28;20400;-52
2022/08/06 06:52:35;;;;;;;5.37;4.87;;;;;;;22.23;60.07;93330.09;5104282;28;20531;-54
2022/08/06 06:55:02;;;;;;;;;;;;;;;22.37;58.70;93328.69;5105416;28;20414;-50
2022/08/06 06:57:36;;;;;;;5.72;4.70;;;;;;;22.59;56.92;93321.34;5105245;28;19912;-51
2022/08/06 07:00:05;;;;;;;5.07;4.57;;;;;;;23.02;56.04;93320.53;5110536;28;20028;-50
2022/08/06 07:02:34;;;;;;;5.10;4.60;;;;;;;23.19;56.01;93320.63;5091535;28;20170;-51
2022/08/06 07:05:02;;;;;;;5.10;4.60;;;;;;;23.38;53.43;93322.19;5107393;28;20085;-51
2022/08/06 07:07:31;;;;;;;6.60;4.47;;;;;;;23.30;54.45;93322.50;5105529;28;20016;-54
2022/08/06 07:09:57;;;;;;;5.43;4.28;;;;;;;23.23;56.81;93301.09;5105471;28;20461;-53
2022/08/06 07:12:23;;;;;;;17.05;8.95;;;;;;;23.46;55.04;93321.81;5088361;28;20032;-54
2022/08/06 07:14:50;;;;;;;6.85;5.28;;;;;;;23.63;52.99;93319.06;5088292;28;20016;-51
2022/08/06 07:17:18;;;;;;;7.63;4.45;;;;;;;23.80;53.33;93309.94;5105584;28;20020;-53
2022/08/06 07:19:45;;;;;;;5.20;4.47;;;;;;;23.86;52.16;93313.03;5106771;28;20408;-52
2022/08/06 07:22:11;;;;;;;8.45;5.55;;;;;;;24.05;52.79;93311.72;5090418;28;20043;-52
2022/08/06 07:24:37;;;;;;;4.18;3.88;;;;;;;24.24;50.58;93316.03;5091796;28;20024;-50
2022/08/06 07:27:03;;;;;;;9.57;4.60;;;;;;;24.30;51.10;93296.53;5091390;28;20012;-54
2022/08/06 07:29:29;;;;;;;4.32;3.83;;;;;;;24.52;50.20;93295.34;5091407;28;20111;-51
2022/08/06 07:31:56;;;;;;;4.00;3.65;;;;;;;24.79;50.37;93309.16;5091454;28;20546;-53
2022/08/06 07:34:22;;;;;;;14.60;9.13;;;;;;;25.01;50.13;93300.81;5092553;28;20103;-49
2022/08/06 07:36:52;;;;;;;5.05;4.57;;;;;;;25.42;49.23;93305.91;5108651;28;20108;-54
2022/08/06 07:39:27;;;;;;;4.45;4.05;;;;;;;26.21;46.92;93306.59;5092704;28;20035;-52
2022/08/06 07:41:54;;;;;;;4.05;3.67;;;;;;;27.22;44.27;93298.50;5092494;28;20066;-54
2022/08/06 07:44:22;;;;;;;3.70;3.35;;;;;;;28.38;40.35;93298.22;5091213;28;20026;-56
2022/08/06 07:46:50;;;;;;;4.35;3.15;;;;;;;29.45;35.70;93298.69;5092268;28;20024;-54
2022/08/06 07:49:19;;;;;;;4.75;2.80;;;;;;;30.57;34.57;93291.66;5108003;28;20056;-51
2022/08/06 07:51:46;;;;;;;4.10;2.90;;;;;;;31.37;31.62;93303.59;5107909;28;20036;-53
2022/08/06 07:54:12;;;;;;;2.90;2.60;;;;;;;32.27;30.81;93294.75;5108098;28;20031;-53
2022/08/06 07:56:39;;;;;;;4.07;2.90;;;;;;;33.19;29.59;93294.94;5107880;28;20020;-52
2022/08/06 07:59:05;;;;;;;2.88;2.65;;;;;;;33.85;28.21;93291.72;5091977;28;20119;-55
2022/08/06 08:01:31;;;;;;;4.93;2.42;;;;;;;34.47;26.58;93299.88;5090860;28;20532;-54
2022/08/06 08:06:41;;;;;;;2.58;2.38;;;;;;;35.23;24.94;93290.63;5087653;28;20512;-55
2022/08/06 08:09:15;;;;;;;2.83;2.47;;;;;;;35.88;24.66;93299.13;5079968;28;20052;-58
2022/08/06 08:11:43;;;;;;;5.13;3.10;;;;;;;35.57;26.08;93299.22;5086502;28;20027;-54
2022/08/06 08:14:10;;;;;;;3.20;2.40;;;;;;;35.64;24.47;93302.81;5088863;28;20059;-55
2022/08/06 08:16:40;;;;;;;2.25;2.08;;;;;;;36.04;24.20;93305.56;5081117;28;20028;-56
2022/08/06 08:19:32;;;;;;;3.55;1.80;;;;;;;35.66;22.23;93279.81;5083560;28;20062;-56
2022/08/06 08:22:18;;;;;;;2.72;2.53;;;;;;;34.59;23.12;93302.06;5076484;28;20512;-58
2022/08/06 08:24:45;;;;;;;3.92;3.50;;;;;;;33.83;24.25;93306.06;5080896;28;20063;-57
2022/08/06 08:27:12;;;;;;;5.22;2.75;;;;;;;32.86;25.65;93310.38;5079332;28;20028;-58
2022/08/06 08:29:39;;;;;;;2.22;2.05;;;;;;;32.72;26.61;93299.53;5083162;28;20038;-55
2022/08/06 08:32:06;;;;;;;2.73;2.53;;;;;;;32.33;27.43;93303.41;5079843;28;20039;-51
2022/08/06 08:34:32;;;;;;;5.72;2.58;;;;;;;31.95;29.09;93305.81;5082312;28;20028;-46
2022/08/06 08:36:58;;;;;;;5.05;2.58;;;;;;;31.30;28.62;93310.63;5087933;28;20070;-50
2022/08/06 08:39:24;;;;;;;2.70;2.15;;;;;;;30.92;30.94;93310.06;5087415;28;20027;-46
2022/08/06 08:41:52;;;;;;;2.47;2.25;;;;;;;30.52;30.08;93306.50;5087946;28;20063;-48
2022/08/06 08:44:25;;;;;;;4.50;3.00;;;;;;;30.14;31.97;93302.94;5070593;28;20036;-47
2022/08/06 08:46:51;;;;;;;5.18;2.78;;;;;;;30.45;31.21;93310.66;5082849;28;20038;-56
2022/08/06 08:49:28;;;;;;;5.15;2.78;;;;;;;31.03;31.26;93305.97;5086443;28;20497;-50
2022/08/06 08:51:55;;;;;;;4.90;3.35;;;;;;;31.42;29.85;93307.97;5081803;28;20032;-57
2022/08/06 08:54:22;;;;;;;6.07;4.57;;;;;;;31.85;29.08;93300.69;5085740;28;20078;-55
2022/08/06 08:56:49;;;;;;;4.15;3.35;;;;;;;32.55;28.52;93295.06;5069183;28;20188;-57
2022/08/06 08:59:15;;;;;;;5.38;2.70;;;;;;;33.12;26.83;93295.56;5086784;28;20148;-57
2022/08/06 09:01:42;;;;;;;3.78;3.30;;;;;;;33.45;27.85;93285.78;5089755;28;20035;-59
2022/08/06 09:04:07;;;;;;;87.35;33.08;;;;;;;33.46;27.85;93298.69;5088537;28;20054;-59
2022/08/06 09:06:36;;;;;;;4.28;3.92;;;;;;;33.49;26.87;93289.41;5087717;28;20702;-59
2022/08/06 09:09:03;;;;;;;4.07;2.95;;;;;;;33.63;26.52;93283.06;5089245;28;20105;-59
2022/08/06 09:11:33;;;;;;;2.95;2.58;;;;;;;33.97;25.85;93291.81;5080306;28;20025;-59
2022/08/06 09:14:03;;;;;;;3.85;2.38;;;;;;;34.20;26.69;93287.59;5092843;28;20114;-59
2022/08/06 09:16:31;;;;;;;4.78;2.65;;;;;;;33.89;24.80;93273.88;5080104;28;20047;-59
2022/08/06 09:18:57;;;;;;;;;;;;;;;34.39;25.86;93282.66;5086307;28;20463;-58
2022/08/06 09:21:23;;;;;;;6.57;2.90;;;;;;;34.57;26.98;93279.09;5087805;28;20231;-55
2022/08/06 09:23:49;;;;;;;3.38;2.35;;;;;;;34.63;26.10;93262.63;5086702;28;20024;-56
2022/08/06 09:26:15;;;;;;;5.65;2.50;;;;;;;34.79;24.88;93287.75;5088134;28;20085;-57
2022/08/06 09:28:42;;;;;;;2.72;2.53;;;;;;;34.12;24.23;93279.00;5088001;28;20383;-57
2022/08/06 09:31:08;;;;;;;4.13;2.92;;;;;;;33.49;25.41;93283.66;5088378;28;20027;-60
2022/08/06 09:33:36;;;;;;;2.83;2.63;;;;;;;33.55;25.94;93283.72;5088661;28;20077;-60
2022/08/06 09:36:10;;;;;;;8.93;3.10;;;;;;;33.78;27.35;93275.97;5088227;28;20032;-62
2022/08/06 09:38:54;;;;;;;2.60;2.30;;;;;;;34.14;26.31;93275.41;5075461;28;20086;-61
2022/08/06 09:41:24;;;;;;;2.50;2.30;;;;;;;34.55;25.27;93264.75;5087376;28;20035;-60
2022/08/06 09:43:52;;;;;;;2.97;2.28;;;;;;;34.77;24.00;93267.66;5087937;28;20032;-56
2022/08/06 09:46:34;;;;;;;4.20;2.17;;;;;;;34.79;24.54;93273.41;5082509;28;20408;-58
2022/08/06 09:49:01;;;;;;;3.05;2.50;;;;;;;34.89;25.03;93264.81;5085607;28;20408;-57
2022/08/06 09:51:27;;;;;;;5.35;2.35;;;;;;;35.52;23.19;93274.81;5072267;28;20051;-58
2022/08/06 09:53:58;;;;;;;2.53;2.30;;;;;;;35.80;23.03;93274.03;5103201;28;20024;-58
2022/08/06 09:56:25;;;;;;;2.33;2.17;;;;;;;36.42;22.90;93281.69;5096159;28;20035;-59
2022/08/06 09:58:50;;;;;;;5.03;2.58;;;;;;;37.27;21.30;93267.44;5089268;28;20671;-58
2022/08/06 10:01:25;;;;;;;3.67;2.50;;;;;;;37.27;21.28;93278.22;5081192;28;20031;-60
2022/08/06 10:03:54;;;;;;;4.43;2.45;;;;;;;37.50;20.94;93265.78;5081136;28;20027;-58
2022/08/06 10:06:20;;;;;;;2.70;2.50;;;;;;;37.87;19.86;93281.25;5070998;28;20089;-58
2022/08/06 10:08:51;;;;;;;4.00;2.50;;;;;;;37.38;19.79;93270.97;5088864;28;20123;-53
2022/08/06 10:11:36;;;;;;;3.10;2.22;;;;;;;36.97;21.43;93288.53;5085320;28;20055;-58
2022/08/06 10:14:01;;;;;;;2.47;2.05;;;;;;;37.08;20.86;93280.53;5086148;28;20102;-57
2022/08/06 10:16:30;;;;;;;2.35;2.15;;;;;;;37.49;21.56;93286.69;5088880;28;20020;-58
2022/08/06 10:18:58;;;;;;;;;;;;;;;37.83;20.42;93289.25;5087533;28;20488;-57
2022/08/06 10:21:33;;;;;;;2.95;2.25;;;;;;;37.87;19.56;93284.16;5089101;28;19915;-57
2022/08/06 10:24:01;;;;;;;3.13;2.08;;;;;;;37.79;19.41;93280.63;5085913;28;20020;-59
2022/08/06 10:26:28;;;;;;;2.42;2.22;;;;;;;37.82;19.89;93282.03;5087208;28;20035;-57
2022/08/06 10:28:54;;;;;;;2.90;2.00;;;;;;;37.78;19.58;93282.06;5086036;28;20028;-59
2022/08/06 10:31:21;;;;;;;6.47;2.42;;;;;;;38.53;20.70;93279.72;5088525;28;20016;-58
2022/08/06 10:33:58;;;;;;;3.22;2.33;;;;;;;39.17;17.96;93286.03;5084184;28;20024;-55
2022/08/06 10:36:39;;;;;;;3.38;2.38;;;;;;;38.65;17.92;93279.56;5091445;28;20020;-57
2022/08/06 10:39:06;;;;;;;2.20;2.00;;;;;;;37.58;19.50;93285.88;5088113;28;20485;-58
2022/08/06 10:41:34;;;;;;;2.60;2.40;;;;;;;36.62;20.37;93281.59;5090337;28;20035;-58
2022/08/06 10:44:01;;;;;;;4.05;2.40;;;;;;;36.69;20.77;93277.22;5092740;28;20445;-59
2022/08/06 10:46:28;;;;;;;3.33;2.10;;;;;;;36.51;20.70;93274.47;5090557;28;20051;-58
2022/08/06 10:48:54;;;;;;;2.50;2.40;;;;;;;35.89;20.95;93277.59;5091209;28;20089;-49
2022/08/06 10:51:19;;;;;;;3.22;2.50;;;;;;;35.51;21.33;93269.81;5093285;28;20077;-56
2022/08/06 10:53:46;;;;;;;3.28;2.50;;;;;;;35.31;21.83;93273.41;5081385;28;20036;-58
2022/08/06 10:56:15;;;;;;;3.20;2.15;;;;;;;35.55;21.77;93264.78;5078145;28;20024;-54
2022/08/06 10:58:41;;;;;;;2.70;2.50;;;;;;;35.44;20.92;93262.59;5093038;28;20051;-49
2022/08/06 11:01:28;;;;;;;3.38;2.55;;;;;;;34.77;22.75;93268.38;5087372;28;20052;-49
2022/08/06 11:04:08;;;;;;;3.08;2.55;;;;;;;34.91;23.04;93259.06;5086075;28;20149;-53
2022/08/06 11:06:53;;;;;;;2.67;2.47;;;;;;;35.14;23.32;93256.91;5093198;28;20024;-56
2022/08/06 11:09:56;;;;;;;3.15;2.90;;;;;;;35.57;24.73;93264.03;5091825;28;20031;-59
2022/08/06 11:12:30;;;;;;;2.50;2.30;;;;;;;36.02;22.06;93258.91;5092809;28;20035;-58
2022/08/06 11:14:58;;;;;;;2.95;2.10;;;;;;;35.87;21.92;93260.34;5073630;28;20032;-58
2022/08/06 11:17:24;;;;;;;2.45;2.28;;;;;;;35.60;23.17;93237.47;5081011;28;20020;-57
2022/08/06 11:19:50;;;;;;;5.22;2.55;;;;;;;35.76;23.78;93248.91;5073591;28;20036;-51
2022/08/06 11:22:35;;;;;;;2.60;2.40;;;;;;;35.72;23.56;93251.78;5082606;28;20398;-57
2022/08/06 11:25:05;;;;;;;3.33;3.03;;;;;;;35.73;23.08;93247.50;5072893;28;20021;-59
2022/08/06 11:27:52;;;;;;;8.10;2.60;;;;;;;35.82;23.37;93248.16;5088478;28;20076;-59
2022/08/06 11:30:19;;;;;;;6.20;2.80;;;;;;;35.87;24.33;93252.44;5092597;28;20063;-57
2022/08/06 11:32:50;;;;;;;4.72;3.55;;;;;;;35.79;23.08;93249.59;5091998;28;20032;-58
2022/08/06 11:35:34;;;;;;;3.72;2.47;;;;;;;35.63;23.06;93247.50;5089809;28;20077;-47
2022/08/06 11:38:00;;;;;;;3.83;2.67;;;;;;;34.86;22.34;93237.53;5083773;28;20059;-49
2022/08/06 11:40:26;;;;;;;4.05;2.53;;;;;;;34.30;23.97;93243.94;5100390;28;20114;-52
2022/08/06 11:42:51;;;;;;;8.38;4.05;;;;;;;33.76;24.68;93244.47;5085934;28;20497;-54
2022/08/06 11:45:20;;;;;;;5.40;3.45;;;;;;;33.18;25.04;93252.72;5089065;28;20020;-50
2022/08/06 11:48:05;;;;;;;7.55;2.75;;;;;;;33.21;26.65;93249.16;5102717;28;20023;-47
2022/08/06 11:50:31;;;;;;;4.55;3.20;;;;;;;33.35;25.88;93226.31;5092160;28;20412;-59
2022/08/06 11:52:58;;;;;;;3.08;2.78;;;;;;;33.49;24.96;93235.00;5086773;28;20027;-48
2022/08/06 11:55:24;;;;;;;3.10;2.80;;;;;;;33.12;26.42;93244.06;5085690;28;20116;-56
2022/08/06 11:58:15;;;;;;;3.55;3.25;;;;;;;32.77;26.32;93243.81;5082734;28;20518;-47
2022/08/06 12:01:00;;;;;;;3.97;3.17;;;;;;;32.24;26.46;93224.75;5077727;28;20047;-47
2022/08/06 12:03:39;;;;;;;5.15;3.38;;;;;;;32.53;27.06;93240.03;5075878;28;20055;-50
2022/08/06 12:06:25;;;;;;;5.40;3.28;;;;;;;32.99;27.53;93236.81;5084405;28;20035;-52